createdAt,value
2022-08-01T00:00:51.647Z,0.00
2022-08-01T00:01:51.686Z,0.00
2022-08-01T00:02:51.636Z,0.00
2022-08-01T00:03:51.617Z,0.00
2022-08-01T00:04:51.637Z,0.00
2022-08-01T00:05:51.613Z,0.00
2022-08-01T00:06:51.594Z,0.00
2022-08-01T00:07:51.588Z,0.00
2022-08-01T00:08:51.580Z,0.00
2022-08-01T00:09:51.613Z,0.00
2022-08-01T00:10:51.565Z,0.00
2022-08-01T00:11:59.521Z,0.00
2022-08-01T00:12:52.559Z,0.00
2022-08-01T00:13:51.543Z,0.00
2022-08-01T00:14:51.564Z,0.00
2022-08-01T00:15:54.359Z,0.00
2022-08-01T00:16:51.558Z,0.00
2022-08-01T00:17:51.505Z,0.00
2022-08-01T00:18:51.508Z,0.00
2022-08-01T00:19:51.517Z,0.00
2022-08-01T00:20:51.492Z,0.00
2022-08-01T00:21:52.084Z,0.00
2022-08-01T00:22:52.461Z,0.00
2022-08-01T00:23:52.460Z,0.00
2022-08-01T00:24:51.480Z,0.00
2022-08-01T00:25:51.446Z,0.00
2022-08-01T00:26:51.432Z,0.00
2022-08-01T00:27:51.424Z,0.00
2022-08-01T00:28:51.414Z,0.00
2022-08-01T00:30:13.999Z,0.00
2022-08-01T00:30:52.402Z,0.00
2022-08-01T00:31:51.423Z,0.00
2022-08-01T00:32:51.385Z,0.00
2022-08-01T00:33:51.377Z,0.00
2022-08-01T00:34:51.401Z,0.00
2022-08-01T00:35:51.363Z,0.00
2022-08-01T00:36:51.352Z,0.00
2022-08-01T00:37:51.339Z,0.00
2022-08-01T00:38:51.328Z,0.00
2022-08-01T00:39:51.350Z,0.00
2022-08-01T00:40:51.311Z,0.00
2022-08-01T00:41:59.849Z,0.00
2022-08-01T00:42:52.297Z,0.00
2022-08-01T00:43:51.293Z,0.00
2022-08-01T00:44:51.312Z,0.00
2022-08-01T00:45:51.269Z,0.00
2022-08-01T00:46:51.279Z,0.00
2022-08-01T00:47:55.307Z,0.00
2022-08-01T00:48:51.307Z,0.00
2022-08-01T00:49:51.273Z,0.00
2022-08-01T00:50:51.232Z,0.00
2022-08-01T00:51:51.224Z,0.00
2022-08-01T00:52:51.456Z,0.00
2022-08-01T00:53:52.428Z,0.00
2022-08-01T00:54:51.234Z,0.00
2022-08-01T00:55:51.197Z,0.00
2022-08-01T00:56:51.190Z,0.00
2022-08-01T00:58:05.813Z,0.00
2022-08-01T00:58:52.179Z,0.00
2022-08-01T00:59:51.193Z,0.00
2022-08-01T01:00:53.061Z,0.00
2022-08-01T01:01:51.188Z,0.00
2022-08-01T01:02:51.141Z,0.00
2022-08-01T01:03:59.701Z,0.00
2022-08-01T01:04:53.156Z,0.00
2022-08-01T01:05:51.112Z,0.00
2022-08-01T01:06:51.112Z,0.00
2022-08-01T01:07:51.099Z,0.00
2022-08-01T01:08:51.101Z,0.00
2022-08-01T01:09:51.120Z,0.00
2022-08-01T01:10:51.072Z,0.00
2022-08-01T01:11:51.067Z,0.00
2022-08-01T01:12:51.058Z,0.00
2022-08-01T01:13:51.179Z,0.00
2022-08-01T01:14:51.069Z,0.00
2022-08-01T01:15:51.043Z,0.00
2022-08-01T01:16:51.020Z,0.00
2022-08-01T01:17:52.034Z,0.00
2022-08-01T01:18:52.023Z,0.00
2022-08-01T01:19:51.046Z,0.00
2022-08-01T01:20:50.999Z,0.00
2022-08-01T01:21:50.998Z,0.00
2022-08-01T01:22:50.978Z,0.00
2022-08-01T01:23:50.979Z,0.00
2022-08-01T01:24:50.998Z,0.00
2022-08-01T01:25:50.960Z,0.00
2022-08-01T01:26:50.960Z,0.00
2022-08-01T01:27:50.943Z,0.00
2022-08-01T01:28:50.937Z,0.00
2022-08-01T01:29:59.899Z,0.00
2022-08-01T01:30:51.914Z,0.00
2022-08-01T01:31:50.920Z,0.00
2022-08-01T01:32:50.972Z,0.00
2022-08-01T01:33:50.895Z,0.00
2022-08-01T01:34:50.893Z,0.00
2022-08-01T01:35:50.915Z,0.00
2022-08-01T01:36:50.868Z,0.00
2022-08-01T01:37:50.876Z,0.00
2022-08-01T01:38:50.859Z,0.00
2022-08-01T01:39:54.392Z,0.00
2022-08-01T01:40:50.874Z,0.00
2022-08-01T01:41:50.832Z,0.00
2022-08-01T01:42:50.824Z,0.00
2022-08-01T01:43:50.823Z,0.00
2022-08-01T01:44:50.808Z,0.00
2022-08-01T01:45:50.834Z,0.00
2022-08-01T01:46:50.790Z,0.00
2022-08-01T01:47:50.789Z,0.00
2022-08-01T01:48:50.804Z,0.00
2022-08-01T01:49:50.765Z,0.00
2022-08-01T01:50:50.800Z,0.00
2022-08-01T01:52:01.968Z,0.00
2022-08-01T01:52:51.742Z,0.00
2022-08-01T01:53:50.744Z,0.00
2022-08-01T01:54:50.731Z,0.00
2022-08-01T01:55:50.751Z,0.00
2022-08-01T01:56:50.716Z,0.00
2022-08-01T01:57:50.713Z,0.00
2022-08-01T01:58:50.696Z,0.00
2022-08-01T01:59:50.691Z,0.00
2022-08-01T02:00:50.711Z,0.00
2022-08-01T02:01:58.263Z,0.00
2022-08-01T02:02:51.789Z,0.00
2022-08-01T02:03:50.654Z,0.00
2022-08-01T02:04:50.656Z,0.00
2022-08-01T02:05:50.677Z,0.00
2022-08-01T02:06:50.633Z,0.00
2022-08-01T02:07:50.636Z,0.00
2022-08-01T02:08:50.623Z,0.00
2022-08-01T02:09:50.614Z,0.00
2022-08-01T02:10:50.643Z,0.00
2022-08-01T02:12:08.442Z,0.00
2022-08-01T02:12:51.582Z,0.00
2022-08-01T02:13:50.578Z,0.00
2022-08-01T02:14:50.567Z,0.00
2022-08-01T02:16:00.008Z,0.00
2022-08-01T02:16:51.560Z,0.00
2022-08-01T02:17:50.548Z,0.00
2022-08-01T02:18:50.535Z,0.00
2022-08-01T02:19:50.525Z,0.00
2022-08-01T02:20:50.549Z,0.00
2022-08-01T02:21:50.512Z,0.00
2022-08-01T02:22:50.506Z,0.00
2022-08-01T02:23:50.496Z,0.00
2022-08-01T02:24:50.488Z,0.00
2022-08-01T02:26:10.748Z,0.00
2022-08-01T02:26:51.476Z,0.00
2022-08-01T02:27:50.467Z,0.00
2022-08-01T02:28:50.460Z,0.00
2022-08-01T02:29:50.447Z,0.00
2022-08-01T02:30:50.485Z,0.00
2022-08-01T02:31:50.433Z,0.00
2022-08-01T02:32:50.429Z,0.00
2022-08-01T02:33:50.411Z,0.00
2022-08-01T02:34:51.409Z,0.00
2022-08-01T02:36:29.052Z,0.00
2022-08-01T02:36:51.399Z,0.00
2022-08-01T02:37:50.397Z,0.00
2022-08-01T02:38:50.376Z,0.00
2022-08-01T02:39:51.366Z,0.00
2022-08-01T02:40:50.390Z,0.00
2022-08-01T02:41:50.359Z,0.00
2022-08-01T02:42:50.356Z,0.00
2022-08-01T02:43:53.455Z,0.00
2022-08-01T02:44:50.325Z,0.00
2022-08-01T02:45:50.354Z,0.00
2022-08-01T02:46:50.321Z,0.00
2022-08-01T02:47:50.308Z,0.00
2022-08-01T02:48:50.372Z,0.00
2022-08-01T02:49:53.735Z,0.00
2022-08-01T02:50:50.308Z,0.00
2022-08-01T02:51:50.286Z,0.00
2022-08-01T02:52:50.259Z,0.00
2022-08-01T02:53:50.252Z,0.00
2022-08-01T02:54:50.247Z,0.00
2022-08-01T02:55:50.266Z,0.00
2022-08-01T02:56:50.226Z,0.00
2022-08-01T02:57:52.546Z,0.00
2022-08-01T02:58:51.217Z,0.00
2022-08-01T02:59:50.203Z,0.00
2022-08-01T03:00:50.224Z,0.00
2022-08-01T03:01:50.231Z,0.00
2022-08-01T03:02:50.173Z,0.00
2022-08-01T03:03:50.163Z,0.00
2022-08-01T03:04:53.951Z,0.00
2022-08-01T03:05:52.175Z,0.00
2022-08-01T03:06:50.147Z,0.00
2022-08-01T03:07:50.132Z,0.00
2022-08-01T03:08:50.126Z,0.00
2022-08-01T03:09:50.118Z,0.00
2022-08-01T03:10:50.139Z,0.00
2022-08-01T03:11:50.103Z,0.00
2022-08-01T03:12:50.098Z,0.00
2022-08-01T03:13:50.102Z,0.00
2022-08-01T03:14:50.387Z,0.00
2022-08-01T03:15:50.068Z,0.00
2022-08-01T03:16:50.109Z,0.00
2022-08-01T03:17:50.075Z,0.00
2022-08-01T03:18:50.054Z,0.00
2022-08-01T03:19:50.047Z,0.00
2022-08-01T03:20:50.039Z,0.00
2022-08-01T03:21:50.050Z,0.00
2022-08-01T03:22:50.021Z,0.00
2022-08-01T03:23:53.491Z,0.00
2022-08-01T03:24:52.016Z,0.00
2022-08-01T03:25:49.998Z,0.00
2022-08-01T03:26:50.022Z,0.00
2022-08-01T03:27:49.985Z,0.00
2022-08-01T03:28:49.974Z,0.00
2022-08-01T03:29:49.970Z,0.00
2022-08-01T03:30:49.951Z,0.00
2022-08-01T03:31:49.975Z,0.00
2022-08-01T03:32:49.940Z,0.00
2022-08-01T03:33:49.933Z,0.00
2022-08-01T03:34:49.926Z,0.00
2022-08-01T03:35:49.922Z,0.00
2022-08-01T03:36:50.135Z,0.00
2022-08-01T03:38:14.839Z,0.00
2022-08-01T03:38:51.894Z,0.00
2022-08-01T03:39:49.880Z,0.00
2022-08-01T03:40:49.876Z,0.00
2022-08-01T03:41:52.554Z,0.00
2022-08-01T03:42:50.859Z,0.00
2022-08-01T03:43:49.855Z,0.00
2022-08-01T03:44:49.851Z,0.00
2022-08-01T03:45:49.839Z,0.00
2022-08-01T03:46:49.861Z,0.00
2022-08-01T03:47:49.817Z,0.00
2022-08-01T03:48:49.860Z,0.00
2022-08-01T03:49:49.806Z,0.00
2022-08-01T03:50:49.797Z,0.00
2022-08-01T03:51:49.827Z,0.00
2022-08-01T03:52:49.777Z,0.00
2022-08-01T03:53:49.795Z,0.00
2022-08-01T03:54:49.759Z,5.62
2022-08-01T03:55:49.753Z,5.62
2022-08-01T03:56:49.772Z,5.62
2022-08-01T03:57:49.737Z,5.62
2022-08-01T03:58:50.279Z,5.62
2022-08-01T03:59:49.724Z,5.62
2022-08-01T04:00:49.717Z,5.62
2022-08-01T04:01:49.797Z,11.25
2022-08-01T04:02:49.710Z,11.25
2022-08-01T04:03:49.687Z,11.25
2022-08-01T04:04:49.677Z,11.25
2022-08-01T04:05:49.674Z,16.88
2022-08-01T04:06:49.696Z,16.88
2022-08-01T04:07:49.661Z,16.88
2022-08-01T04:08:49.658Z,22.50
2022-08-01T04:09:49.643Z,22.50
2022-08-01T04:10:50.449Z,22.50
2022-08-01T04:11:49.660Z,28.12
2022-08-01T04:12:49.622Z,28.12
2022-08-01T04:13:49.613Z,28.12
2022-08-01T04:14:49.589Z,22.50
2022-08-01T04:15:50.592Z,22.50
2022-08-01T04:16:49.594Z,16.88
2022-08-01T04:17:49.603Z,16.88
2022-08-01T04:18:49.568Z,16.88
2022-08-01T04:19:49.564Z,16.88
2022-08-01T04:20:49.568Z,16.88
2022-08-01T04:21:49.547Z,16.88
2022-08-01T04:22:49.562Z,16.88
2022-08-01T04:23:51.333Z,16.88
2022-08-01T04:24:53.315Z,16.88
2022-08-01T04:25:51.510Z,16.88
2022-08-01T04:26:49.508Z,16.88
2022-08-01T04:27:51.770Z,16.88
2022-08-01T04:28:49.486Z,16.88
2022-08-01T04:29:49.471Z,16.88
2022-08-01T04:30:49.489Z,16.88
2022-08-01T04:31:49.468Z,16.88
2022-08-01T04:32:49.479Z,16.88
2022-08-01T04:33:49.444Z,16.88
2022-08-01T04:34:49.436Z,16.88
2022-08-01T04:36:03.541Z,16.88
2022-08-01T04:36:50.407Z,16.88
2022-08-01T04:37:49.451Z,16.88
2022-08-01T04:38:49.402Z,16.88
2022-08-01T04:39:51.014Z,16.88
2022-08-01T04:40:49.402Z,16.88
2022-08-01T04:41:49.368Z,16.88
2022-08-01T04:42:49.453Z,16.88
2022-08-01T04:43:49.354Z,16.88
2022-08-01T04:44:49.347Z,16.88
2022-08-01T04:45:49.342Z,22.50
2022-08-01T04:46:49.369Z,28.12
2022-08-01T04:47:49.366Z,28.12
2022-08-01T04:48:49.367Z,33.75
2022-08-01T04:49:49.551Z,39.38
2022-08-01T04:50:49.301Z,45.00
2022-08-01T04:51:49.295Z,50.62
2022-08-01T04:52:49.314Z,56.25
2022-08-01T04:53:49.277Z,61.88
2022-08-01T04:54:49.270Z,61.88
2022-08-01T04:55:49.266Z,61.88
2022-08-01T04:56:49.255Z,67.50
2022-08-01T04:57:49.282Z,67.50
2022-08-01T04:58:49.243Z,61.88
2022-08-01T04:59:49.233Z,56.25
2022-08-01T05:00:49.295Z,56.25
2022-08-01T05:01:49.268Z,56.25
2022-08-01T05:02:50.238Z,56.25
2022-08-01T05:03:49.195Z,50.62
2022-08-01T05:04:49.261Z,50.62
2022-08-01T05:05:49.175Z,50.62
2022-08-01T05:06:49.169Z,50.62
2022-08-01T05:07:49.199Z,50.62
2022-08-01T05:08:49.183Z,50.62
2022-08-01T05:09:49.153Z,50.62
2022-08-01T05:10:49.144Z,50.62
2022-08-01T05:11:49.121Z,50.62
2022-08-01T05:12:50.157Z,56.25
2022-08-01T05:13:49.116Z,56.25
2022-08-01T05:14:49.166Z,67.50
2022-08-01T05:15:49.122Z,84.38
2022-08-01T05:16:49.094Z,95.62
2022-08-01T05:17:49.117Z,106.88
2022-08-01T05:18:49.077Z,118.12
2022-08-01T05:19:49.151Z,123.75
2022-08-01T05:20:49.081Z,129.38
2022-08-01T05:21:49.046Z,129.38
2022-08-01T05:22:49.085Z,123.75
2022-08-01T05:23:49.048Z,123.75
2022-08-01T05:24:49.190Z,118.12
2022-08-01T05:25:56.408Z,118.12
2022-08-01T05:26:50.038Z,106.88
2022-08-01T05:27:50.811Z,101.25
2022-08-01T05:28:48.994Z,101.25
2022-08-01T05:29:48.989Z,95.62
2022-08-01T05:30:48.974Z,95.62
2022-08-01T05:31:48.974Z,90.00
2022-08-01T05:32:48.992Z,84.38
2022-08-01T05:33:48.950Z,78.75
2022-08-01T05:34:48.944Z,78.75
2022-08-01T05:35:49.468Z,73.12
2022-08-01T05:36:52.910Z,73.12
2022-08-01T05:37:49.949Z,78.75
2022-08-01T05:38:48.918Z,84.38
2022-08-01T05:39:48.906Z,95.62
2022-08-01T05:40:48.890Z,101.25
2022-08-01T05:41:48.886Z,106.88
2022-08-01T05:42:48.900Z,112.50
2022-08-01T05:43:48.887Z,118.12
2022-08-01T05:44:48.860Z,118.12
2022-08-01T05:45:48.854Z,106.88
2022-08-01T05:46:48.844Z,95.62
2022-08-01T05:47:48.871Z,84.38
2022-08-01T05:48:48.889Z,84.38
2022-08-01T05:49:48.818Z,78.75
2022-08-01T05:50:48.826Z,78.75
2022-08-01T05:51:48.830Z,78.75
2022-08-01T05:52:48.834Z,84.38
2022-08-01T05:53:48.796Z,90.00
2022-08-01T05:54:48.805Z,95.62
2022-08-01T05:55:48.784Z,106.88
2022-08-01T05:56:48.759Z,118.12
2022-08-01T05:57:48.793Z,123.75
2022-08-01T05:58:48.741Z,123.75
2022-08-01T05:59:48.776Z,135.00
2022-08-01T06:00:48.724Z,146.25
2022-08-01T06:01:48.748Z,157.50
2022-08-01T06:02:48.713Z,157.50
2022-08-01T06:03:48.737Z,168.75
2022-08-01T06:04:48.685Z,180.00
2022-08-01T06:05:48.684Z,191.25
2022-08-01T06:06:48.685Z,202.50
2022-08-01T06:07:48.697Z,185.62
2022-08-01T06:08:48.697Z,180.00
2022-08-01T06:09:48.668Z,185.62
2022-08-01T06:10:48.639Z,202.50
2022-08-01T06:11:48.641Z,225.00
2022-08-01T06:12:48.637Z,236.25
2022-08-01T06:13:49.095Z,253.12
2022-08-01T06:14:48.612Z,264.38
2022-08-01T06:15:48.619Z,264.38
2022-08-01T06:16:48.593Z,270.00
2022-08-01T06:17:48.587Z,275.62
2022-08-01T06:18:48.607Z,298.12
2022-08-01T06:19:48.567Z,298.12
2022-08-01T06:20:48.560Z,292.50
2022-08-01T06:21:48.549Z,298.12
2022-08-01T06:22:51.724Z,292.50
2022-08-01T06:23:48.567Z,292.50
2022-08-01T06:24:48.526Z,298.12
2022-08-01T06:25:48.522Z,309.38
2022-08-01T06:26:48.519Z,337.50
2022-08-01T06:27:48.522Z,382.50
2022-08-01T06:28:48.523Z,410.62
2022-08-01T06:29:53.478Z,461.25
2022-08-01T06:30:49.485Z,427.50
2022-08-01T06:31:48.496Z,450.00
2022-08-01T06:32:48.471Z,450.00
2022-08-01T06:33:48.485Z,472.50
2022-08-01T06:34:48.443Z,461.25
2022-08-01T06:35:48.434Z,376.88
2022-08-01T06:36:48.454Z,281.25
2022-08-01T06:37:48.419Z,247.50
2022-08-01T06:38:48.448Z,241.88
2022-08-01T06:39:48.398Z,253.12
2022-08-01T06:40:48.399Z,286.88
2022-08-01T06:41:48.388Z,309.38
2022-08-01T06:42:48.387Z,331.88
2022-08-01T06:44:20.311Z,360.00
2022-08-01T06:44:48.375Z,410.62
2022-08-01T06:45:48.363Z,427.50
2022-08-01T06:46:48.349Z,427.50
2022-08-01T06:47:50.558Z,405.00
2022-08-01T06:48:48.435Z,343.12
2022-08-01T06:49:48.327Z,298.12
2022-08-01T06:50:48.327Z,258.75
2022-08-01T06:51:48.340Z,225.00
2022-08-01T06:52:48.304Z,213.75
2022-08-01T06:53:48.337Z,202.50
2022-08-01T06:54:48.302Z,196.88
2022-08-01T06:55:48.280Z,196.88
2022-08-01T06:56:48.267Z,191.25
2022-08-01T06:57:48.265Z,191.25
2022-08-01T06:58:48.304Z,208.12
2022-08-01T06:59:51.956Z,219.38
2022-08-01T07:00:49.336Z,225.00
2022-08-01T07:01:48.234Z,270.00
2022-08-01T07:02:48.225Z,315.00
2022-08-01T07:03:52.689Z,348.75
2022-08-01T07:04:49.249Z,348.75
2022-08-01T07:05:48.204Z,320.62
2022-08-01T07:06:48.192Z,286.88
2022-08-01T07:07:48.194Z,258.75
2022-08-01T07:08:48.176Z,241.88
2022-08-01T07:09:48.204Z,230.62
2022-08-01T07:10:48.162Z,213.75
2022-08-01T07:11:48.150Z,202.50
2022-08-01T07:12:48.151Z,185.62
2022-08-01T07:13:48.134Z,185.62
2022-08-01T07:14:48.184Z,191.25
2022-08-01T07:15:48.130Z,196.88
2022-08-01T07:16:48.113Z,202.50
2022-08-01T07:17:48.110Z,208.12
2022-08-01T07:18:48.094Z,208.12
2022-08-01T07:19:48.126Z,208.12
2022-08-01T07:20:52.771Z,208.12
2022-08-01T07:21:49.402Z,208.12
2022-08-01T07:22:48.211Z,208.12
2022-08-01T07:23:48.075Z,225.00
2022-08-01T07:24:48.080Z,236.25
2022-08-01T07:25:50.826Z,236.25
2022-08-01T07:26:54.427Z,225.00
2022-08-01T07:27:49.032Z,219.38
2022-08-01T07:28:48.010Z,225.00
2022-08-01T07:29:48.036Z,236.25
2022-08-01T07:30:47.995Z,253.12
2022-08-01T07:31:48.014Z,270.00
2022-08-01T07:32:47.984Z,286.88
2022-08-01T07:33:49.259Z,303.75
2022-08-01T07:34:48.013Z,326.25
2022-08-01T07:35:47.956Z,337.50
2022-08-01T07:36:47.970Z,354.38
2022-08-01T07:37:49.226Z,365.62
2022-08-01T07:38:47.942Z,388.12
2022-08-01T07:39:47.964Z,416.25
2022-08-01T07:40:47.935Z,444.38
2022-08-01T07:42:05.973Z,478.12
2022-08-01T07:42:48.895Z,500.62
2022-08-01T07:43:57.149Z,506.25
2022-08-01T07:44:49.924Z,511.88
2022-08-01T07:45:47.897Z,517.50
2022-08-01T07:46:47.900Z,551.25
2022-08-01T07:47:47.870Z,585.00
2022-08-01T07:48:47.869Z,624.38
2022-08-01T07:49:48.001Z,663.75
2022-08-01T07:50:47.828Z,691.88
2022-08-01T07:52:03.694Z,753.75
2022-08-01T07:52:48.815Z,961.88
2022-08-01T07:53:47.807Z,1535.62
2022-08-01T07:54:52.133Z,1057.50
2022-08-01T07:55:48.805Z,1597.50
2022-08-01T07:56:47.794Z,2064.38
2022-08-01T07:57:47.790Z,1012.50
2022-08-01T07:58:47.787Z,905.62
2022-08-01T07:59:47.804Z,849.38
2022-08-01T08:00:47.755Z,1462.50
2022-08-01T08:01:47.864Z,1029.38
2022-08-01T08:02:47.745Z,815.62
2022-08-01T08:03:47.757Z,810.00
2022-08-01T08:04:49.281Z,916.88
2022-08-01T08:05:58.698Z,1372.50
2022-08-01T08:06:48.732Z,832.50
2022-08-01T08:07:47.710Z,776.25
2022-08-01T08:08:47.704Z,1715.62
2022-08-01T08:09:51.236Z,883.12
2022-08-01T08:10:47.680Z,804.38
2022-08-01T08:11:48.455Z,793.12
2022-08-01T08:12:48.667Z,793.12
2022-08-01T08:13:47.686Z,821.25
2022-08-01T08:14:47.676Z,1755.00
2022-08-01T08:15:48.563Z,1631.25
2022-08-01T08:16:47.646Z,1665.00
2022-08-01T08:17:52.610Z,1063.12
2022-08-01T08:18:48.612Z,922.50
2022-08-01T08:19:47.651Z,1811.25
2022-08-01T08:20:47.594Z,1766.25
2022-08-01T08:21:47.594Z,1524.38
2022-08-01T08:22:47.585Z,1265.62
2022-08-01T08:23:47.603Z,1541.25
2022-08-01T08:24:47.599Z,1113.75
2022-08-01T08:25:47.576Z,905.62
2022-08-01T08:26:47.571Z,1867.50
2022-08-01T08:27:47.549Z,1912.50
2022-08-01T08:28:47.542Z,1113.75
2022-08-01T08:29:47.562Z,1063.12
2022-08-01T08:30:47.525Z,1113.75
2022-08-01T08:31:51.947Z,916.88
2022-08-01T08:32:48.515Z,765.00
2022-08-01T08:33:47.539Z,691.88
2022-08-01T08:34:47.533Z,646.88
2022-08-01T08:35:54.224Z,618.75
2022-08-01T08:36:48.487Z,607.50
2022-08-01T08:37:49.186Z,613.12
2022-08-01T08:38:47.463Z,641.25
2022-08-01T08:39:47.494Z,652.50
2022-08-01T08:40:47.440Z,753.75
2022-08-01T08:41:49.438Z,1029.38
2022-08-01T08:42:47.459Z,1265.62
2022-08-01T08:43:47.413Z,1063.12
2022-08-01T08:44:47.447Z,613.12
2022-08-01T08:45:59.247Z,579.38
2022-08-01T08:46:48.408Z,624.38
2022-08-01T08:47:47.394Z,680.62
2022-08-01T08:48:47.526Z,714.38
2022-08-01T08:49:49.424Z,703.12
2022-08-01T08:50:47.408Z,697.50
2022-08-01T08:51:47.363Z,708.75
2022-08-01T08:52:47.356Z,720.00
2022-08-01T08:53:47.344Z,1068.75
2022-08-01T08:54:47.342Z,765.00
2022-08-01T08:55:56.232Z,759.38
2022-08-01T08:56:48.313Z,793.12
2022-08-01T08:57:47.335Z,905.62
2022-08-01T08:58:47.306Z,1029.38
2022-08-01T08:59:47.311Z,1136.25
2022-08-01T09:00:48.324Z,3560.62
2022-08-01T09:01:47.276Z,1490.62
2022-08-01T09:02:47.327Z,1153.12
2022-08-01T09:03:47.272Z,1012.50
2022-08-01T09:04:47.267Z,961.88
2022-08-01T09:05:47.279Z,888.75
2022-08-01T09:06:47.241Z,832.50
2022-08-01T09:07:47.242Z,787.50
2022-08-01T09:08:47.231Z,798.75
2022-08-01T09:09:47.246Z,883.12
2022-08-01T09:10:47.244Z,1057.50
2022-08-01T09:11:57.458Z,1226.25
2022-08-01T09:12:48.199Z,1237.50
2022-08-01T09:13:47.273Z,1260.00
2022-08-01T09:14:47.239Z,1569.38
2022-08-01T09:15:47.211Z,2238.75
2022-08-01T09:16:49.020Z,3105.00
2022-08-01T09:17:48.158Z,2041.88
2022-08-01T09:18:53.687Z,1828.12
2022-08-01T09:19:48.142Z,1344.38
2022-08-01T09:20:47.157Z,1164.38
2022-08-01T09:21:47.144Z,1153.12
2022-08-01T09:22:47.959Z,1001.25
2022-08-01T09:23:54.285Z,871.88
2022-08-01T09:24:48.139Z,860.62
2022-08-01T09:25:47.950Z,973.12
2022-08-01T09:26:47.095Z,2559.38
2022-08-01T09:27:47.078Z,787.50
2022-08-01T09:28:47.976Z,635.62
2022-08-01T09:29:49.836Z,641.25
2022-08-01T09:30:48.072Z,838.12
2022-08-01T09:31:47.618Z,708.75
2022-08-01T09:32:47.037Z,798.75
2022-08-01T09:33:47.034Z,1119.38
2022-08-01T09:34:47.045Z,855.00
2022-08-01T09:35:48.003Z,933.75
2022-08-01T09:36:47.029Z,1327.50
2022-08-01T09:37:47.368Z,1828.12
2022-08-01T09:38:51.035Z,3307.50
2022-08-01T09:39:47.980Z,3431.25
2022-08-01T09:40:46.998Z,1400.62
2022-08-01T09:41:46.965Z,894.38
2022-08-01T09:42:46.952Z,748.12
2022-08-01T09:43:46.949Z,720.00
2022-08-01T09:44:54.643Z,708.75
2022-08-01T09:45:50.704Z,720.00
2022-08-01T09:46:46.945Z,787.50
2022-08-01T09:47:46.941Z,1023.75
2022-08-01T09:48:49.330Z,855.00
2022-08-01T09:49:52.109Z,804.38
2022-08-01T09:50:47.921Z,742.50
2022-08-01T09:51:59.529Z,691.88
2022-08-01T09:52:47.881Z,686.25
2022-08-01T09:53:51.442Z,714.38
2022-08-01T09:54:47.872Z,748.12
2022-08-01T09:55:46.889Z,770.62
2022-08-01T09:56:46.850Z,776.25
2022-08-01T09:57:46.861Z,759.38
2022-08-01T09:58:46.835Z,736.88
2022-08-01T09:59:58.247Z,720.00
2022-08-01T10:00:48.853Z,731.25
2022-08-01T10:01:46.819Z,703.12
2022-08-01T10:02:46.808Z,703.12
2022-08-01T10:03:46.867Z,787.50
2022-08-01T10:04:46.794Z,815.62
2022-08-01T10:05:49.940Z,1035.00
2022-08-01T10:06:46.785Z,2835.00
2022-08-01T10:07:46.779Z,2970.00
2022-08-01T10:08:46.755Z,2829.38
2022-08-01T10:09:46.761Z,2593.12
2022-08-01T10:10:46.740Z,2295.00
2022-08-01T10:11:46.754Z,1816.88
2022-08-01T10:12:47.711Z,1569.38
2022-08-01T10:13:46.715Z,1417.50
2022-08-01T10:14:46.888Z,1518.75
2022-08-01T10:15:46.697Z,1507.50
2022-08-01T10:16:46.751Z,1839.38
2022-08-01T10:17:50.274Z,2660.62
2022-08-01T10:18:46.680Z,3003.75
2022-08-01T10:19:46.693Z,1035.00
2022-08-01T10:20:46.670Z,1057.50
2022-08-01T10:21:57.744Z,2154.38
2022-08-01T10:22:47.648Z,3228.75
2022-08-01T10:23:46.637Z,3200.62
2022-08-01T10:24:46.636Z,3093.75
2022-08-01T10:25:47.326Z,3178.12
2022-08-01T10:26:46.662Z,3076.88
2022-08-01T10:27:46.612Z,2846.25
2022-08-01T10:28:46.619Z,3138.75
2022-08-01T10:30:05.565Z,990.00
2022-08-01T10:30:48.708Z,804.38
2022-08-01T10:31:50.574Z,2829.38
2022-08-01T10:32:50.535Z,3088.12
2022-08-01T10:33:51.637Z,3060.00
2022-08-01T10:34:47.585Z,3031.88
2022-08-01T10:35:48.175Z,2953.12
2022-08-01T10:36:47.584Z,3020.62
2022-08-01T10:37:52.205Z,2964.38
2022-08-01T10:38:47.543Z,2925.00
2022-08-01T10:39:47.004Z,2846.25
2022-08-01T10:40:47.537Z,2593.12
2022-08-01T10:41:46.550Z,2199.38
2022-08-01T10:42:46.533Z,1935.00
2022-08-01T10:43:47.098Z,1659.38
2022-08-01T10:44:46.494Z,1434.38
2022-08-01T10:45:46.498Z,1395.00
2022-08-01T10:46:46.535Z,793.12
2022-08-01T10:47:50.731Z,765.00
2022-08-01T10:48:46.469Z,1327.50
2022-08-01T10:49:46.471Z,1254.38
2022-08-01T10:50:48.433Z,1181.25
2022-08-01T10:51:52.358Z,1175.62
2022-08-01T10:52:47.438Z,1186.88
2022-08-01T10:53:46.437Z,1215.00
2022-08-01T10:54:52.499Z,1192.50
2022-08-01T10:55:47.424Z,1209.38
2022-08-01T10:56:46.465Z,1215.00
2022-08-01T10:57:52.673Z,1231.88
2022-08-01T10:58:47.403Z,1085.62
2022-08-01T10:59:50.726Z,1243.12
2022-08-01T11:00:47.388Z,748.12
2022-08-01T11:01:46.427Z,1271.25
2022-08-01T11:02:46.374Z,1231.88
2022-08-01T11:03:57.057Z,1226.25
2022-08-01T11:04:48.359Z,1248.75
2022-08-01T11:05:46.353Z,1248.75
2022-08-01T11:06:46.374Z,1243.12
2022-08-01T11:07:46.361Z,1215.00
2022-08-01T11:08:46.335Z,1181.25
2022-08-01T11:09:51.354Z,1198.12
2022-08-01T11:10:48.322Z,900.00
2022-08-01T11:11:46.350Z,725.62
2022-08-01T11:12:46.314Z,714.38
2022-08-01T11:13:46.293Z,810.00
2022-08-01T11:14:55.743Z,1057.50
2022-08-01T11:15:50.520Z,1282.50
2022-08-01T11:16:46.313Z,1254.38
2022-08-01T11:17:46.296Z,1243.12
2022-08-01T11:18:46.280Z,1243.12
2022-08-01T11:19:46.270Z,1226.25
2022-08-01T11:20:46.255Z,1226.25
2022-08-01T11:21:58.127Z,1215.00
2022-08-01T11:22:47.246Z,1226.25
2022-08-01T11:23:46.239Z,855.00
2022-08-01T11:24:46.247Z,1130.62
2022-08-01T11:26:05.441Z,1186.88
2022-08-01T11:26:47.241Z,838.12
2022-08-01T11:27:46.206Z,888.75
2022-08-01T11:29:11.009Z,849.38
2022-08-01T11:29:48.195Z,821.25
2022-08-01T11:30:46.187Z,781.88
2022-08-01T11:31:46.223Z,748.12
2022-08-01T11:33:06.644Z,748.12
2022-08-01T11:33:48.176Z,995.62
2022-08-01T11:34:46.183Z,1288.12
2022-08-01T11:35:46.149Z,990.00
2022-08-01T11:37:01.415Z,1310.62
2022-08-01T11:37:48.171Z,832.50
2022-08-01T11:38:46.131Z,838.12
2022-08-01T11:39:46.131Z,1310.62
2022-08-01T11:40:46.118Z,1260.00
2022-08-01T11:41:46.114Z,1147.50
2022-08-01T11:42:46.126Z,855.00
2022-08-01T11:43:46.091Z,950.62
2022-08-01T11:44:46.108Z,1231.88
2022-08-01T11:45:46.077Z,1260.00
2022-08-01T11:46:46.084Z,1243.12
2022-08-01T11:47:46.115Z,1198.12
2022-08-01T11:48:46.057Z,1203.75
2022-08-01T11:49:49.372Z,1186.88
2022-08-01T11:50:46.043Z,1164.38
2022-08-01T11:51:46.033Z,1170.00
2022-08-01T11:52:46.070Z,1170.00
2022-08-01T11:53:46.030Z,1153.12
2022-08-01T11:54:46.039Z,1158.75
2022-08-01T11:55:51.155Z,1147.50
2022-08-01T11:56:48.065Z,1130.62
2022-08-01T11:57:46.044Z,1119.38
2022-08-01T11:58:46.001Z,1119.38
2022-08-01T11:59:45.992Z,1130.62
2022-08-01T12:00:47.127Z,1125.00
2022-08-01T12:01:45.969Z,1085.62
2022-08-01T12:02:46.246Z,1096.88
2022-08-01T12:03:46.060Z,1130.62
2022-08-01T12:04:45.968Z,787.50
2022-08-01T12:05:45.940Z,691.88
2022-08-01T12:06:45.939Z,990.00
2022-08-01T12:07:46.982Z,663.75
2022-08-01T12:08:45.930Z,1175.62
2022-08-01T12:09:45.951Z,1198.12
2022-08-01T12:10:47.257Z,753.75
2022-08-01T12:11:45.905Z,838.12
2022-08-01T12:12:45.925Z,1338.75
2022-08-01T12:13:45.899Z,1383.75
2022-08-01T12:14:45.887Z,1372.50
2022-08-01T12:15:45.883Z,1316.25
2022-08-01T12:16:45.878Z,1288.12
2022-08-01T12:17:57.563Z,1265.62
2022-08-01T12:18:46.862Z,1226.25
2022-08-01T12:19:45.872Z,1186.88
2022-08-01T12:20:56.172Z,1164.38
2022-08-01T12:21:47.840Z,1175.62
2022-08-01T12:22:45.858Z,1181.25
2022-08-01T12:23:45.824Z,1181.25
2022-08-01T12:24:45.814Z,1175.62
2022-08-01T12:25:45.803Z,1192.50
2022-08-01T12:26:45.795Z,1181.25
2022-08-01T12:27:45.837Z,1181.25
2022-08-01T12:28:45.791Z,1175.62
2022-08-01T12:29:45.804Z,1186.88
2022-08-01T12:30:45.780Z,1198.12
2022-08-01T12:31:45.766Z,1153.12
2022-08-01T12:32:45.788Z,1119.38
2022-08-01T12:33:45.750Z,1108.12
2022-08-01T12:34:45.804Z,1091.25
2022-08-01T12:35:45.739Z,1119.38
2022-08-01T12:36:45.728Z,1063.12
2022-08-01T12:37:45.756Z,1046.25
2022-08-01T12:38:45.714Z,1035.00
2022-08-01T12:39:45.732Z,1051.88
2022-08-01T12:40:46.009Z,1057.50